KDAA/DAA METAR and TAF weather

Enter ICAO airport designator
Station Type Date Time Source
KDAA METAR 2018/10/21 05:56 UTC NOAA

KDAA 210556Z AUTO 27006KT 10SM OVC110 10/07 A2979 RMK AO2 RAE01 SLP091 P0000 60000 T01000067 10147 20100 52015 TSNO $


Station Type Date Time Source
KDAA Decoded METAR 2018/10/21 05:56 UTC NOAA

Fort Belvoir, VA, United States (KDAA) 38-43N 077-11W
Oct 21, 2018 - 01:56 AM EDT / 2018.10.21 0556 UTC
Wind: from the W (270 degrees) at 7 MPH (6 KT):0
Visibility: 10 mile(s):0
Sky conditions: overcast
Precipitation last hour: A trace
Temperature: 50.0 F (10.0 C)
Dew Point: 44.1 F (6.7 C)
Relative Humidity: 79%
Pressure (altimeter): 29.79 in. Hg (1008 hPa)
Pressure tendency: 0.04 inches (1.5 hPa) higher than three hours ago
ob: KDAA 210556Z AUTO 27006KT 10SM OVC110 10/07 A2979 RMK AO2 RAE01 SLP091 P0000 60000 T01000067 10147 20100 52015 TSNO
cycle: 6

Station Type Date Time Source
KDAA TAF 2018/10/20 01:06 UTC NOAA

TAF KDAA 200100Z 2001/2107 18012KT 9999 SCT140 BKN160 QNH2994INS
BECMG 2002/2003 22009KT 9999 BKN020 QNH2986INS
BECMG 2008/2009 22009KT 6000 -RA BR OVC005 QNH2982INS
BECMG 2012/2013 22009KT 8000 BR OVC010 QNH2978INS
BECMG 2017/2018 25012G18KT 9999 NSW OVC030 QNH2972INS TX18/2018Z TN12/2009Z LAST NO
AMDS AFT 2001 NEXT 2209


Example: see airport list